createdAt,value
2017-12-29T00:00:25.332Z,21.36
2017-12-29T00:00:56.953Z,21.33
2017-12-29T00:01:28.577Z,21.33
2017-12-29T00:02:00.245Z,21.37
2017-12-29T00:02:31.870Z,21.37
2017-12-29T00:03:03.498Z,21.37
2017-12-29T00:03:35.126Z,21.39
2017-12-29T00:04:06.746Z,21.38
2017-12-29T00:04:38.377Z,21.38
2017-12-29T00:05:10.006Z,21.39
2017-12-29T00:05:41.625Z,21.40
2017-12-29T00:06:13.250Z,21.40
2017-12-29T00:06:44.873Z,21.39
2017-12-29T00:07:16.533Z,21.37
2017-12-29T00:07:48.153Z,21.36
2017-12-29T00:08:19.779Z,21.35
2017-12-29T00:08:51.402Z,21.33
2017-12-29T00:09:23.029Z,21.34
2017-12-29T00:09:54.698Z,21.32
2017-12-29T00:10:26.325Z,21.33
2017-12-29T00:10:57.950Z,21.30
2017-12-29T00:11:29.570Z,21.33
2017-12-29T00:12:01.194Z,21.33
2017-12-29T00:12:32.844Z,21.34
2017-12-29T00:13:04.469Z,21.34
2017-12-29T00:13:36.093Z,21.33
2017-12-29T00:14:07.721Z,21.33
2017-12-29T00:14:39.348Z,21.35
2017-12-29T00:15:11.029Z,21.34
2017-12-29T00:15:42.649Z,21.33
2017-12-29T00:16:14.270Z,21.30
2017-12-29T00:16:45.890Z,21.28
2017-12-29T00:17:17.517Z,21.29
2017-12-29T00:17:49.142Z,21.30
2017-12-29T00:18:20.766Z,21.28
2017-12-29T00:18:52.391Z,21.29
2017-12-29T00:19:24.018Z,21.29
2017-12-29T00:19:55.642Z,21.28
2017-12-29T00:20:27.306Z,21.30
2017-12-29T00:20:58.931Z,21.30
2017-12-29T00:21:30.553Z,21.30
2017-12-29T00:22:02.178Z,21.27
2017-12-29T00:22:33.805Z,21.26
2017-12-29T00:23:05.429Z,21.24
2017-12-29T00:23:37.050Z,21.27
2017-12-29T00:24:08.682Z,21.27
2017-12-29T00:24:40.309Z,21.27
2017-12-29T00:25:11.942Z,21.25
2017-12-29T00:25:43.601Z,21.25
2017-12-29T00:26:15.228Z,21.23
2017-12-29T00:26:46.859Z,21.23
2017-12-29T00:27:18.485Z,21.20
2017-12-29T00:27:50.106Z,21.21
2017-12-29T00:28:21.726Z,21.21
2017-12-29T00:28:53.361Z,21.20
2017-12-29T00:29:24.986Z,21.19
2017-12-29T00:29:56.659Z,21.17
2017-12-29T00:30:28.281Z,21.19
2017-12-29T00:30:59.901Z,21.18
2017-12-29T00:31:31.525Z,21.18
2017-12-29T00:32:03.150Z,21.19
2017-12-29T00:32:34.773Z,21.20
2017-12-29T00:33:06.402Z,21.21
2017-12-29T00:33:38.021Z,21.22
2017-12-29T00:34:09.645Z,21.20
2017-12-29T00:34:41.326Z,21.20
2017-12-29T00:35:13.004Z,21.18
2017-12-29T00:35:44.630Z,21.15
2017-12-29T00:36:16.257Z,21.17
2017-12-29T00:36:47.890Z,21.16
2017-12-29T00:37:19.509Z,21.16
2017-12-29T00:37:51.133Z,21.16
2017-12-29T00:38:22.794Z,21.15
2017-12-29T00:38:54.417Z,21.15
2017-12-29T00:39:26.038Z,21.14
2017-12-29T00:39:57.665Z,21.15
2017-12-29T00:40:29.339Z,21.14
2017-12-29T00:41:00.965Z,21.15
2017-12-29T00:41:32.587Z,21.12
2017-12-29T00:42:04.219Z,21.11
2017-12-29T00:42:35.853Z,21.10
2017-12-29T00:43:07.473Z,20.93
2017-12-29T00:43:39.092Z,21.06
2017-12-29T00:44:10.713Z,21.05
2017-12-29T00:44:42.339Z,21.04
2017-12-29T00:45:13.966Z,21.04
2017-12-29T00:45:45.599Z,21.04
2017-12-29T00:46:17.222Z,21.01
2017-12-29T00:46:48.850Z,21.00
2017-12-29T00:47:20.514Z,20.99
2017-12-29T00:47:52.134Z,21.01
2017-12-29T00:48:23.803Z,21.00
2017-12-29T00:48:55.417Z,20.98
2017-12-29T00:49:27.033Z,20.97
2017-12-29T00:49:58.661Z,20.96
2017-12-29T00:50:30.281Z,20.96
2017-12-29T00:51:01.906Z,20.95
2017-12-29T00:51:33.526Z,20.93
2017-12-29T00:52:05.197Z,20.92
2017-12-29T00:52:36.830Z,20.92
2017-12-29T00:53:08.449Z,20.93
2017-12-29T00:53:40.074Z,20.93
2017-12-29T00:54:11.701Z,20.92
2017-12-29T00:54:43.369Z,20.93
2017-12-29T00:55:14.996Z,20.92
2017-12-29T00:55:46.625Z,20.94
2017-12-29T00:56:18.245Z,20.92
2017-12-29T00:56:49.877Z,20.92
2017-12-29T00:57:21.497Z,20.92
2017-12-29T00:57:53.124Z,20.92
2017-12-29T00:58:24.749Z,20.93
2017-12-29T00:58:56.370Z,20.95
2017-12-29T00:59:27.990Z,20.94
2017-12-29T00:59:59.662Z,20.94
2017-12-29T01:00:31.290Z,20.95
2017-12-29T01:01:02.917Z,20.97
2017-12-29T01:01:34.542Z,20.98
2017-12-29T01:02:06.161Z,21.02
2017-12-29T01:02:37.825Z,21.02
2017-12-29T01:03:09.445Z,21.02
2017-12-29T01:03:41.065Z,21.02
2017-12-29T01:04:12.685Z,21.04
2017-12-29T01:04:44.306Z,21.03
2017-12-29T01:05:15.924Z,21.05
2017-12-29T01:05:47.550Z,21.05
2017-12-29T01:06:19.181Z,21.04
2017-12-29T01:06:50.814Z,21.05
2017-12-29T01:07:22.433Z,21.04
2017-12-29T01:07:54.057Z,21.03
2017-12-29T01:08:25.678Z,21.05
2017-12-29T01:08:57.297Z,21.06
2017-12-29T01:09:28.918Z,21.06
2017-12-29T01:10:00.584Z,21.05
2017-12-29T01:10:32.250Z,21.07
2017-12-29T01:11:03.877Z,21.07
2017-12-29T01:11:35.498Z,21.08
2017-12-29T01:12:07.128Z,21.08
2017-12-29T01:12:38.750Z,21.10
2017-12-29T01:13:10.369Z,21.12
2017-12-29T01:13:41.993Z,21.11
2017-12-29T01:14:13.661Z,21.11
2017-12-29T01:14:45.282Z,21.14
2017-12-29T01:15:16.910Z,21.13
2017-12-29T01:15:48.534Z,21.14
2017-12-29T01:16:20.156Z,21.13
2017-12-29T01:16:51.778Z,21.15
2017-12-29T01:17:23.449Z,21.18
2017-12-29T01:17:55.064Z,21.18
2017-12-29T01:18:26.686Z,21.19
2017-12-29T01:18:58.309Z,21.20
2017-12-29T01:19:29.934Z,21.21
2017-12-29T01:20:01.554Z,21.22
2017-12-29T01:20:33.238Z,21.22
2017-12-29T01:21:04.862Z,21.19
2017-12-29T01:21:36.489Z,21.19
2017-12-29T01:22:08.117Z,21.19
2017-12-29T01:22:39.743Z,21.20
2017-12-29T01:23:11.524Z,21.22
2017-12-29T01:23:43.142Z,21.27
2017-12-29T01:24:15.253Z,21.36
2017-12-29T01:24:46.877Z,21.32
2017-12-29T01:25:18.499Z,21.28
2017-12-29T01:25:50.162Z,21.21
2017-12-29T01:26:21.790Z,21.21
2017-12-29T01:26:53.409Z,21.21
2017-12-29T01:27:25.034Z,21.23
2017-12-29T01:27:56.657Z,21.20
2017-12-29T01:28:28.282Z,21.21
2017-12-29T01:28:59.962Z,21.22
2017-12-29T01:29:31.585Z,21.22
2017-12-29T01:30:03.242Z,21.21
2017-12-29T01:30:34.874Z,21.21
2017-12-29T01:31:06.497Z,21.24
2017-12-29T01:31:38.130Z,21.22
2017-12-29T01:32:09.753Z,21.21
2017-12-29T01:32:41.374Z,21.20
2017-12-29T01:33:13.469Z,21.19
2017-12-29T01:33:45.090Z,21.19
2017-12-29T01:34:16.750Z,21.19
2017-12-29T01:34:48.369Z,21.19
2017-12-29T01:35:19.985Z,21.18
2017-12-29T01:35:51.608Z,21.18
2017-12-29T01:36:23.231Z,21.17
2017-12-29T01:36:54.853Z,21.14
2017-12-29T01:37:26.481Z,21.16
2017-12-29T01:37:58.101Z,21.14
2017-12-29T01:38:29.720Z,21.16
2017-12-29T01:39:01.336Z,21.16
2017-12-29T01:39:32.997Z,21.15
2017-12-29T01:40:04.622Z,21.15
2017-12-29T01:40:36.241Z,21.16
2017-12-29T01:41:07.869Z,21.17
2017-12-29T01:41:39.486Z,21.18
2017-12-29T01:42:11.114Z,21.17
2017-12-29T01:42:42.746Z,21.17
2017-12-29T01:43:14.371Z,21.07
2017-12-29T01:43:46.033Z,21.16
2017-12-29T01:44:17.658Z,21.20
2017-12-29T01:44:49.281Z,21.21
2017-12-29T01:45:20.957Z,21.22
2017-12-29T01:45:52.581Z,21.26
2017-12-29T01:46:24.201Z,21.25
2017-12-29T01:46:55.821Z,21.25
2017-12-29T01:47:27.441Z,21.28
2017-12-29T01:47:59.066Z,21.29
2017-12-29T01:48:30.685Z,21.30
2017-12-29T01:49:02.305Z,21.31
2017-12-29T01:49:33.933Z,21.28
2017-12-29T01:50:05.555Z,21.27
2017-12-29T01:50:37.234Z,21.24
2017-12-29T01:51:08.857Z,21.24
2017-12-29T01:51:40.477Z,21.25
2017-12-29T01:52:12.097Z,21.26
2017-12-29T01:52:43.721Z,21.26
2017-12-29T01:53:15.341Z,21.27
2017-12-29T01:53:46.961Z,21.29
2017-12-29T01:54:18.580Z,21.29
2017-12-29T01:54:50.206Z,21.28
2017-12-29T01:55:21.825Z,21.26
2017-12-29T01:55:53.490Z,21.27
2017-12-29T01:56:25.121Z,21.26
2017-12-29T01:56:56.750Z,21.28
2017-12-29T01:57:28.375Z,21.29
2017-12-29T01:58:00.020Z,21.29
2017-12-29T01:58:31.686Z,21.30
2017-12-29T01:59:03.314Z,21.29
2017-12-29T01:59:34.933Z,21.28
2017-12-29T02:00:06.553Z,21.28
2017-12-29T02:00:38.173Z,21.29
2017-12-29T02:01:09.793Z,21.29
2017-12-29T02:01:41.417Z,21.27
2017-12-29T02:02:13.042Z,21.25
2017-12-29T02:02:44.676Z,21.21
2017-12-29T02:03:16.337Z,21.19
2017-12-29T02:03:47.957Z,21.17
2017-12-29T02:04:19.581Z,21.17
2017-12-29T02:04:51.202Z,21.16
2017-12-29T02:05:22.829Z,21.13
2017-12-29T02:05:54.453Z,21.12
2017-12-29T02:06:26.077Z,21.11
2017-12-29T02:06:57.748Z,21.11
2017-12-29T02:07:29.374Z,21.11
2017-12-29T02:08:00.997Z,21.11
2017-12-29T02:08:32.614Z,21.12
2017-12-29T02:09:04.277Z,21.11
2017-12-29T02:09:35.950Z,21.08
2017-12-29T02:10:07.570Z,21.09
2017-12-29T02:10:39.196Z,21.14
2017-12-29T02:11:10.817Z,21.11
2017-12-29T02:11:42.436Z,21.13
2017-12-29T02:12:14.062Z,21.15
2017-12-29T02:12:45.690Z,21.13
2017-12-29T02:13:17.310Z,21.15
2017-12-29T02:13:48.939Z,21.13
2017-12-29T02:14:20.562Z,21.11
2017-12-29T02:14:52.234Z,21.10
2017-12-29T02:15:23.924Z,21.11
2017-12-29T02:15:55.555Z,21.12
2017-12-29T02:16:27.182Z,21.09
2017-12-29T02:16:58.810Z,21.10
2017-12-29T02:17:30.434Z,21.09
2017-12-29T02:18:02.070Z,21.06
2017-12-29T02:18:33.706Z,21.06
2017-12-29T02:19:05.329Z,21.07
2017-12-29T02:19:36.954Z,21.09
2017-12-29T02:20:08.614Z,21.06
2017-12-29T02:20:40.238Z,21.07
2017-12-29T02:21:11.973Z,21.09
2017-12-29T02:21:43.590Z,21.09
2017-12-29T02:22:15.222Z,21.07
2017-12-29T02:22:46.841Z,21.08
2017-12-29T02:23:18.462Z,21.08
2017-12-29T02:23:50.081Z,21.08
2017-12-29T02:24:21.702Z,21.07
2017-12-29T02:24:53.321Z,21.09
2017-12-29T02:25:24.941Z,21.07
2017-12-29T02:25:56.625Z,21.07
2017-12-29T02:26:28.247Z,21.04
2017-12-29T02:26:59.869Z,21.06
2017-12-29T02:27:31.490Z,21.07
2017-12-29T02:28:03.113Z,21.04
2017-12-29T02:28:34.738Z,21.08
2017-12-29T02:29:06.361Z,21.07
2017-12-29T02:29:37.981Z,21.08
2017-12-29T02:30:09.602Z,21.07
2017-12-29T02:30:41.223Z,21.03
2017-12-29T02:31:12.894Z,21.06
2017-12-29T02:31:44.514Z,21.06
2017-12-29T02:32:16.137Z,21.07
2017-12-29T02:32:47.798Z,21.06
2017-12-29T02:33:19.420Z,21.05
2017-12-29T02:33:51.042Z,21.05
2017-12-29T02:34:22.667Z,21.06
2017-12-29T02:34:54.290Z,21.05
2017-12-29T02:35:25.924Z,21.04
2017-12-29T02:35:57.549Z,21.06
2017-12-29T02:36:29.174Z,21.04
2017-12-29T02:37:00.797Z,21.05
2017-12-29T02:37:32.426Z,21.04
2017-12-29T02:38:04.054Z,21.03
2017-12-29T02:38:35.726Z,21.05
2017-12-29T02:39:07.349Z,21.05
2017-12-29T02:39:38.981Z,21.05
2017-12-29T02:40:10.606Z,21.06
2017-12-29T02:40:42.225Z,21.05
2017-12-29T02:41:13.854Z,21.04
2017-12-29T02:41:45.478Z,21.04
2017-12-29T02:42:17.111Z,21.06
2017-12-29T02:42:48.780Z,21.08
2017-12-29T02:43:20.407Z,21.09
2017-12-29T02:43:52.026Z,21.07
2017-12-29T02:44:23.649Z,21.06
2017-12-29T02:44:55.270Z,21.06
2017-12-29T02:45:26.898Z,21.06
2017-12-29T02:45:58.522Z,21.06
2017-12-29T02:46:30.146Z,21.07
2017-12-29T02:47:01.770Z,21.05
2017-12-29T02:47:33.405Z,21.03
2017-12-29T02:48:05.085Z,21.04
2017-12-29T02:48:36.705Z,21.03
2017-12-29T02:49:08.332Z,21.03
2017-12-29T02:49:39.958Z,21.03
2017-12-29T02:50:11.586Z,21.01
2017-12-29T02:50:43.213Z,21.00
2017-12-29T02:51:14.838Z,21.02
2017-12-29T02:51:46.457Z,21.01
2017-12-29T02:52:18.077Z,21.02
2017-12-29T02:52:49.702Z,21.05
2017-12-29T02:53:21.373Z,21.05
2017-12-29T02:53:52.995Z,21.09
2017-12-29T02:54:24.622Z,21.11
2017-12-29T02:54:56.242Z,21.11
2017-12-29T02:55:27.866Z,21.10
2017-12-29T02:55:59.486Z,21.09
2017-12-29T02:56:31.106Z,21.10
2017-12-29T02:57:02.727Z,21.11
2017-12-29T02:57:34.350Z,21.10
2017-12-29T02:58:05.977Z,21.09
2017-12-29T02:58:37.597Z,21.08
2017-12-29T02:59:09.234Z,21.10
2017-12-29T02:59:40.854Z,21.08
2017-12-29T03:00:12.482Z,21.09
2017-12-29T03:00:44.105Z,21.09
2017-12-29T03:01:15.722Z,21.08
2017-12-29T03:01:47.341Z,21.08
2017-12-29T03:02:18.970Z,21.12
2017-12-29T03:02:50.605Z,21.10
2017-12-29T03:03:22.229Z,21.11
2017-12-29T03:03:53.906Z,21.11
2017-12-29T03:04:25.533Z,21.09
2017-12-29T03:04:57.169Z,21.10
2017-12-29T03:05:28.793Z,21.08
2017-12-29T03:06:00.414Z,21.10
2017-12-29T03:06:32.038Z,21.09
2017-12-29T03:07:03.666Z,21.09
2017-12-29T03:07:35.286Z,21.11
2017-12-29T03:08:06.909Z,21.10
2017-12-29T03:08:38.530Z,21.11
2017-12-29T03:09:10.206Z,21.10
2017-12-29T03:09:41.871Z,21.09
2017-12-29T03:10:13.489Z,21.08
2017-12-29T03:10:45.166Z,21.09
2017-12-29T03:11:16.786Z,21.09
2017-12-29T03:11:48.414Z,21.08
2017-12-29T03:12:20.038Z,21.08
2017-12-29T03:12:51.661Z,21.08
2017-12-29T03:13:23.281Z,21.06
2017-12-29T03:13:54.913Z,21.05
2017-12-29T03:14:26.533Z,21.06
2017-12-29T03:14:58.153Z,21.05
2017-12-29T03:15:29.773Z,21.06
2017-12-29T03:16:01.393Z,21.08
2017-12-29T03:16:33.017Z,21.05
2017-12-29T03:17:04.638Z,21.06
2017-12-29T03:17:36.262Z,21.07
2017-12-29T03:18:07.888Z,21.08
2017-12-29T03:18:39.509Z,21.08
2017-12-29T03:19:11.130Z,21.07
2017-12-29T03:19:42.749Z,20.94
2017-12-29T03:20:14.374Z,21.09
2017-12-29T03:20:46.044Z,21.08
2017-12-29T03:21:17.674Z,21.06
2017-12-29T03:21:49.297Z,21.08
2017-12-29T03:22:20.916Z,21.04
2017-12-29T03:22:52.533Z,21.05
2017-12-29T03:23:24.158Z,21.06
2017-12-29T03:23:55.778Z,21.03
2017-12-29T03:24:27.401Z,21.05
2017-12-29T03:24:59.026Z,21.04
2017-12-29T03:25:30.658Z,21.03
2017-12-29T03:26:02.325Z,21.03
2017-12-29T03:26:33.945Z,21.01
2017-12-29T03:27:05.567Z,21.04
2017-12-29T03:27:37.189Z,21.02
2017-12-29T03:28:08.809Z,21.04
2017-12-29T03:28:40.429Z,21.04
2017-12-29T03:29:12.053Z,21.03
2017-12-29T03:29:43.677Z,21.03
2017-12-29T03:30:15.298Z,21.03
2017-12-29T03:30:46.918Z,21.06
2017-12-29T03:31:18.582Z,21.03
2017-12-29T03:31:50.217Z,21.02
2017-12-29T03:32:21.837Z,21.03
2017-12-29T03:32:53.458Z,21.03
2017-12-29T03:33:25.081Z,21.02
2017-12-29T03:33:56.706Z,21.03
2017-12-29T03:34:28.334Z,21.02
2017-12-29T03:34:59.953Z,21.00
2017-12-29T03:35:31.630Z,21.02
2017-12-29T03:36:03.250Z,21.01
2017-12-29T03:36:34.869Z,21.00
2017-12-29T03:37:06.495Z,21.01
2017-12-29T03:37:38.125Z,21.00
2017-12-29T03:38:09.757Z,21.01
2017-12-29T03:38:41.385Z,21.01
2017-12-29T03:39:13.009Z,21.00
2017-12-29T03:39:44.629Z,21.00
2017-12-29T03:40:16.249Z,21.00
2017-12-29T03:40:47.869Z,20.99
2017-12-29T03:41:19.494Z,20.98
2017-12-29T03:41:51.158Z,20.98
2017-12-29T03:42:22.792Z,20.97
2017-12-29T03:42:54.422Z,20.96
2017-12-29T03:43:26.041Z,20.96
2017-12-29T03:43:57.663Z,20.97
2017-12-29T03:44:29.290Z,20.97
2017-12-29T03:45:00.913Z,20.98
2017-12-29T03:45:32.537Z,20.98
2017-12-29T03:46:04.197Z,20.99
2017-12-29T03:46:35.825Z,20.96
2017-12-29T03:47:07.450Z,20.95
2017-12-29T03:47:39.070Z,20.95
2017-12-29T03:48:10.729Z,20.95
2017-12-29T03:48:43.529Z,20.95
2017-12-29T03:49:15.157Z,20.97
2017-12-29T03:49:46.777Z,20.97
2017-12-29T03:50:18.400Z,21.00
2017-12-29T03:50:50.021Z,20.98
2017-12-29T03:51:21.641Z,21.00
2017-12-29T03:51:53.270Z,20.98
2017-12-29T03:52:24.898Z,20.99
2017-12-29T03:52:56.597Z,20.97
2017-12-29T03:53:28.217Z,20.99
2017-12-29T03:53:59.837Z,20.98
2017-12-29T03:54:31.461Z,20.98
2017-12-29T03:55:03.081Z,20.98
2017-12-29T03:55:34.705Z,20.96
2017-12-29T03:56:06.325Z,20.98
2017-12-29T03:56:37.944Z,20.97
2017-12-29T03:57:09.568Z,20.95
2017-12-29T03:57:41.234Z,21.00
2017-12-29T03:58:12.865Z,21.02
2017-12-29T03:58:44.530Z,21.02
2017-12-29T03:59:16.198Z,21.01
2017-12-29T03:59:47.819Z,20.98
2017-12-29T04:00:19.441Z,21.02
2017-12-29T04:00:51.061Z,21.00
2017-12-29T04:01:22.721Z,21.02
2017-12-29T04:01:54.345Z,21.03
2017-12-29T04:02:25.965Z,21.03
2017-12-29T04:02:57.586Z,21.03
2017-12-29T04:03:29.205Z,21.03
2017-12-29T04:04:00.825Z,21.03
2017-12-29T04:04:32.450Z,21.00
2017-12-29T04:05:04.077Z,21.03
2017-12-29T04:05:35.745Z,21.03
2017-12-29T04:06:07.364Z,21.02
2017-12-29T04:06:38.988Z,21.02
2017-12-29T04:07:10.609Z,21.03
2017-12-29T04:07:42.233Z,21.01
2017-12-29T04:08:13.858Z,21.00
2017-12-29T04:08:45.477Z,21.01
2017-12-29T04:09:17.106Z,21.00
2017-12-29T04:09:48.725Z,21.00
2017-12-29T04:10:20.363Z,21.01
2017-12-29T04:10:51.986Z,21.00
2017-12-29T04:11:23.606Z,21.00
2017-12-29T04:11:55.230Z,21.00
2017-12-29T04:12:26.849Z,21.02
2017-12-29T04:12:58.477Z,21.01
2017-12-29T04:13:30.098Z,21.01
2017-12-29T04:14:01.718Z,20.98
2017-12-29T04:14:33.342Z,21.00
2017-12-29T04:15:05.009Z,21.01
2017-12-29T04:15:36.634Z,21.01
2017-12-29T04:16:08.257Z,21.01
2017-12-29T04:16:39.896Z,21.02
2017-12-29T04:17:11.519Z,21.02
2017-12-29T04:17:43.141Z,21.03
2017-12-29T04:18:14.765Z,21.03
2017-12-29T04:18:46.385Z,21.02
2017-12-29T04:19:18.006Z,21.02
2017-12-29T04:19:49.625Z,21.02
2017-12-29T04:20:21.248Z,21.03
2017-12-29T04:20:52.869Z,21.02
2017-12-29T04:21:24.497Z,21.03
2017-12-29T04:21:56.122Z,21.02
2017-12-29T04:22:27.790Z,21.05
2017-12-29T04:22:59.418Z,21.05
2017-12-29T04:23:31.041Z,21.07
2017-12-29T04:24:02.672Z,21.05
2017-12-29T04:24:34.294Z,21.05
2017-12-29T04:25:05.918Z,21.05
2017-12-29T04:25:37.577Z,21.05
2017-12-29T04:26:09.205Z,21.05
2017-12-29T04:26:40.825Z,21.03
2017-12-29T04:27:12.447Z,21.05
2017-12-29T04:27:44.072Z,21.05
2017-12-29T04:28:15.702Z,21.05
2017-12-29T04:28:47.322Z,21.02
2017-12-29T04:29:18.944Z,21.01
2017-12-29T04:29:50.566Z,21.04
2017-12-29T04:30:22.185Z,21.04
2017-12-29T04:30:53.870Z,21.04
2017-12-29T04:31:25.490Z,21.03
2017-12-29T04:31:57.109Z,21.03
2017-12-29T04:32:28.733Z,21.01
2017-12-29T04:33:00.362Z,21.02
2017-12-29T04:33:32.021Z,21.03
2017-12-29T04:34:03.641Z,21.04
2017-12-29T04:34:35.258Z,21.03
2017-12-29T04:35:06.878Z,21.03
2017-12-29T04:35:38.502Z,21.04
2017-12-29T04:36:10.121Z,21.04
2017-12-29T04:36:41.781Z,21.02
2017-12-29T04:37:13.411Z,21.01
2017-12-29T04:37:45.069Z,21.04
2017-12-29T04:38:16.690Z,21.03
2017-12-29T04:38:48.313Z,21.03
2017-12-29T04:39:19.938Z,21.03
2017-12-29T04:39:51.557Z,21.00
2017-12-29T04:40:23.178Z,21.02
2017-12-29T04:40:54.798Z,21.01
2017-12-29T04:41:26.422Z,21.02
2017-12-29T04:41:58.074Z,21.02
2017-12-29T04:42:29.697Z,21.04
2017-12-29T04:43:01.360Z,21.01
2017-12-29T04:43:32.986Z,21.01
2017-12-29T04:44:04.608Z,21.01
2017-12-29T04:44:36.228Z,21.03
2017-12-29T04:45:08.034Z,21.01
2017-12-29T04:45:39.673Z,21.01
2017-12-29T04:46:11.298Z,21.00
2017-12-29T04:46:42.932Z,21.01
2017-12-29T04:47:14.557Z,21.01
2017-12-29T04:47:46.185Z,21.01
2017-12-29T04:48:17.806Z,20.99
2017-12-29T04:48:49.429Z,21.00
2017-12-29T04:49:21.053Z,20.98
2017-12-29T04:49:52.673Z,20.98
2017-12-29T04:50:24.333Z,20.99
2017-12-29T04:50:55.957Z,20.97
2017-12-29T04:51:27.573Z,20.99
2017-12-29T04:51:59.194Z,20.96
2017-12-29T04:52:30.813Z,20.95
2017-12-29T04:53:02.433Z,20.95
2017-12-29T04:53:34.054Z,20.98
2017-12-29T04:54:05.677Z,20.97
2017-12-29T04:54:37.298Z,20.95
2017-12-29T04:55:08.949Z,20.95
2017-12-29T04:55:40.573Z,20.96
2017-12-29T04:56:12.193Z,20.95
2017-12-29T04:56:43.817Z,20.94
2017-12-29T04:57:15.478Z,20.96
2017-12-29T04:57:47.097Z,20.95
2017-12-29T04:58:18.718Z,20.93
2017-12-29T04:58:50.341Z,20.94
2017-12-29T04:59:21.970Z,20.94
2017-12-29T04:59:53.597Z,20.94
2017-12-29T05:00:25.218Z,20.93
2017-12-29T05:00:56.837Z,20.93
2017-12-29T05:01:28.457Z,20.91
2017-12-29T05:02:00.082Z,20.90
2017-12-29T05:02:31.705Z,20.90
2017-12-29T05:03:03.329Z,20.89
2017-12-29T05:03:34.951Z,20.89
2017-12-29T05:04:06.568Z,20.88
2017-12-29T05:04:38.233Z,20.90
2017-12-29T05:05:09.854Z,20.87
2017-12-29T05:05:41.473Z,20.86
2017-12-29T05:06:13.093Z,20.87
2017-12-29T05:06:44.709Z,20.86
2017-12-29T05:07:16.330Z,20.87
2017-12-29T05:07:47.950Z,20.86
2017-12-29T05:08:19.570Z,20.84
2017-12-29T05:08:51.189Z,20.81
2017-12-29T05:09:22.809Z,20.80
2017-12-29T05:09:54.481Z,20.79
2017-12-29T05:10:26.104Z,20.76
2017-12-29T05:10:57.727Z,20.73
2017-12-29T05:11:29.346Z,20.74
2017-12-29T05:12:00.966Z,20.72
2017-12-29T05:12:32.589Z,20.74
2017-12-29T05:13:04.213Z,20.71
2017-12-29T05:13:35.833Z,20.70
2017-12-29T05:14:07.455Z,20.72
2017-12-29T05:14:39.078Z,20.73
2017-12-29T05:15:10.743Z,20.72
2017-12-29T05:15:42.364Z,20.72
2017-12-29T05:16:13.990Z,20.73
2017-12-29T05:16:45.613Z,20.72
2017-12-29T05:17:17.229Z,20.72
2017-12-29T05:17:48.853Z,20.71
2017-12-29T05:18:20.478Z,20.71
2017-12-29T05:18:52.097Z,20.70
2017-12-29T05:19:23.762Z,20.71
2017-12-29T05:19:55.381Z,20.70
2017-12-29T05:20:27.002Z,20.70
2017-12-29T05:20:58.661Z,20.71
2017-12-29T05:21:30.282Z,20.68
2017-12-29T05:22:01.945Z,20.69
2017-12-29T05:22:33.565Z,20.70
2017-12-29T05:23:05.189Z,20.72
2017-12-29T05:23:36.809Z,20.71
2017-12-29T05:24:08.433Z,20.72
2017-12-29T05:24:40.058Z,20.73
2017-12-29T05:25:11.686Z,20.72
2017-12-29T05:25:43.305Z,20.71
2017-12-29T05:26:14.965Z,20.71
2017-12-29T05:26:46.593Z,20.73
2017-12-29T05:27:18.253Z,20.73
2017-12-29T05:27:49.878Z,20.72
2017-12-29T05:28:21.497Z,20.71
2017-12-29T05:28:53.325Z,20.73
2017-12-29T05:29:24.977Z,20.76
2017-12-29T05:29:56.598Z,20.73
2017-12-29T05:30:28.221Z,20.74
2017-12-29T05:30:59.855Z,20.73
2017-12-29T05:31:31.486Z,20.75
2017-12-29T05:32:03.145Z,20.77
2017-12-29T05:32:34.770Z,20.78
2017-12-29T05:33:06.393Z,20.79
2017-12-29T05:33:38.018Z,20.79
2017-12-29T05:34:09.637Z,20.80
2017-12-29T05:34:41.254Z,20.82
2017-12-29T05:35:12.877Z,20.83
2017-12-29T05:35:44.497Z,20.84
2017-12-29T05:36:16.118Z,20.84
2017-12-29T05:36:47.770Z,20.83
2017-12-29T05:37:19.429Z,20.83
2017-12-29T05:37:51.098Z,20.83
2017-12-29T05:38:22.721Z,20.82
2017-12-29T05:38:54.346Z,20.83
2017-12-29T05:39:25.965Z,20.85
2017-12-29T05:39:57.587Z,20.85
2017-12-29T05:40:29.213Z,20.83
2017-12-29T05:41:00.834Z,20.83
2017-12-29T05:41:32.453Z,20.86
2017-12-29T05:42:04.069Z,20.89
2017-12-29T05:42:35.688Z,20.90
2017-12-29T05:43:07.358Z,20.94
2017-12-29T05:43:38.982Z,20.93
2017-12-29T05:44:10.603Z,20.99
2017-12-29T05:44:42.230Z,21.00
2017-12-29T05:45:13.858Z,21.01
2017-12-29T05:45:45.480Z,21.02
2017-12-29T05:46:17.105Z,21.03
2017-12-29T05:46:48.726Z,21.02
2017-12-29T05:47:20.346Z,21.00
2017-12-29T05:47:51.970Z,21.01
2017-12-29T05:48:23.629Z,21.01
2017-12-29T05:48:55.257Z,21.00
2017-12-29T05:49:26.877Z,21.02
2017-12-29T05:49:58.533Z,21.02
2017-12-29T05:50:30.149Z,21.01
2017-12-29T05:51:01.770Z,21.02
2017-12-29T05:51:33.389Z,21.03
2017-12-29T05:52:05.015Z,21.05
2017-12-29T05:52:36.695Z,21.08
2017-12-29T05:53:08.318Z,21.08
2017-12-29T05:53:39.949Z,21.07
2017-12-29T05:54:11.586Z,21.10
2017-12-29T05:54:43.208Z,21.11
2017-12-29T05:55:14.829Z,21.12
2017-12-29T05:55:46.449Z,21.11
2017-12-29T05:56:18.070Z,21.09
2017-12-29T05:56:49.702Z,21.10
2017-12-29T05:57:21.330Z,21.10
2017-12-29T05:57:52.989Z,21.10
2017-12-29T05:58:24.609Z,21.07
2017-12-29T05:58:56.229Z,21.07
2017-12-29T05:59:27.897Z,21.07
2017-12-29T05:59:59.517Z,21.07
2017-12-29T06:00:31.155Z,21.07
2017-12-29T06:01:02.774Z,21.07
2017-12-29T06:01:34.402Z,21.07
2017-12-29T06:02:06.022Z,21.07
2017-12-29T06:02:37.641Z,21.06
2017-12-29T06:03:09.266Z,21.08
2017-12-29T06:03:40.890Z,21.05
2017-12-29T06:04:12.546Z,21.08
2017-12-29T06:04:44.209Z,21.08
2017-12-29T06:05:15.833Z,21.08
2017-12-29T06:05:47.458Z,21.08
2017-12-29T06:06:19.077Z,21.08
2017-12-29T06:06:50.698Z,21.05
2017-12-29T06:07:22.323Z,21.07
2017-12-29T06:07:53.954Z,21.06
2017-12-29T06:08:25.581Z,21.07
2017-12-29T06:08:57.205Z,21.06
2017-12-29T06:09:28.825Z,21.06
2017-12-29T06:10:00.493Z,21.06
2017-12-29T06:10:32.113Z,21.06
2017-12-29T06:11:03.741Z,21.06
2017-12-29T06:11:35.389Z,21.07
2017-12-29T06:12:07.186Z,21.05
2017-12-29T06:12:38.814Z,21.04
2017-12-29T06:13:10.438Z,21.04
2017-12-29T06:13:42.057Z,21.01
2017-12-29T06:14:13.678Z,21.01
2017-12-29T06:14:45.298Z,21.00
2017-12-29T06:15:16.969Z,20.99
2017-12-29T06:15:48.589Z,21.03
2017-12-29T06:16:20.209Z,21.04
2017-12-29T06:16:51.837Z,21.04
2017-12-29T06:17:23.457Z,21.02
2017-12-29T06:17:55.082Z,21.02
2017-12-29T06:18:26.701Z,21.03
2017-12-29T06:18:58.325Z,21.00
2017-12-29T06:19:29.953Z,21.01
2017-12-29T06:20:01.582Z,20.98
2017-12-29T06:20:33.208Z,21.00
2017-12-29T06:21:04.873Z,20.98
2017-12-29T06:21:36.494Z,20.96
2017-12-29T06:22:08.114Z,20.97
2017-12-29T06:22:39.737Z,20.95
2017-12-29T06:23:11.358Z,20.96
2017-12-29T06:23:42.977Z,20.94
2017-12-29T06:24:14.599Z,20.97
2017-12-29T06:24:46.221Z,21.00
2017-12-29T06:25:17.842Z,20.96
2017-12-29T06:25:49.465Z,20.92
2017-12-29T06:26:21.137Z,20.93
2017-12-29T06:26:52.757Z,20.93
2017-12-29T06:27:24.378Z,20.94
2017-12-29T06:27:56.006Z,20.94
2017-12-29T06:28:27.626Z,20.93
2017-12-29T06:28:59.250Z,20.92
2017-12-29T06:29:30.871Z,20.93
2017-12-29T06:30:02.498Z,20.91
2017-12-29T06:30:34.117Z,20.89
2017-12-29T06:31:05.745Z,20.89
2017-12-29T06:31:37.405Z,20.88
2017-12-29T06:32:09.030Z,20.88
2017-12-29T06:32:40.650Z,20.85
2017-12-29T06:33:12.274Z,20.84
2017-12-29T06:33:43.894Z,20.88
2017-12-29T06:34:15.517Z,20.86
2017-12-29T06:34:47.137Z,20.86
2017-12-29T06:35:18.761Z,20.77
2017-12-29T06:35:50.438Z,20.85
2017-12-29T06:36:22.042Z,20.83
2017-12-29T06:36:53.706Z,20.81
2017-12-29T06:37:25.369Z,20.82
2017-12-29T06:37:56.994Z,20.81
2017-12-29T06:38:28.614Z,20.73
2017-12-29T06:39:00.233Z,20.82
2017-12-29T06:39:31.854Z,20.79
2017-12-29T06:40:03.477Z,20.80
2017-12-29T06:40:35.101Z,20.78
2017-12-29T06:41:06.725Z,20.80
2017-12-29T06:41:38.386Z,20.80
2017-12-29T06:42:10.013Z,20.80
2017-12-29T06:42:41.721Z,20.80
2017-12-29T06:43:13.341Z,20.81
2017-12-29T06:43:45.006Z,20.81
2017-12-29T06:44:16.630Z,20.82
2017-12-29T06:44:48.249Z,20.81
2017-12-29T06:45:19.881Z,20.83
2017-12-29T06:45:51.509Z,20.82
2017-12-29T06:46:23.133Z,20.81
2017-12-29T06:46:54.758Z,20.81
2017-12-29T06:47:26.378Z,20.78